Terminal Aerodrome Forecast
Issued by NWS

Home | Current Version | Previous Version | Text Only | Print | Product List | Glossary On
Versions: 1 2 3 4 5 6 7 8 9 10 11 12 13 14 15 16 17 18 19 20 21 22 23 24 25 26 27 28 29 30 31 32 33 34
000
FTUS41 KOKX 230500
TAFHPN
TAF
KHPN 230528Z 2306/2406 01018G28KT P6SM BKN015
      TEMPO 2306/2309 5SM -RA BR SCT015 BKN030
     FM230900 36018G27KT 6SM BR VCSH BKN010
     FM231400 35017G26KT 6SM BR VCSH BKN015
     FM231800 33015G25KT P6SM BKN025 OVC035
     FM232300 33013G21KT P6SM BKN040 BKN080
     FM240200 33011G17KT P6SM BKN050 BKN080
      AMD NOT SKED=

USA.gov is the U.S. government's official web portal to all federal, state and local government web resources and services.